sensor_id;sensor_type;location;lat;lon;timestamp;P1;durP1;ratioP1;P2;durP2;ratioP2
8574;SDS011;4325;42.520;27.448;2023-02-03T00:00:37;4.10;;;2.00;;
8574;SDS011;4325;42.520;27.448;2023-02-03T00:03:05;6.13;;;3.43;;
8574;SDS011;4325;42.520;27.448;2023-02-03T00:05:32;19.77;;;12.60;;
8574;SDS011;4325;42.520;27.448;2023-02-03T00:08:01;25.87;;;16.20;;
8574;SDS011;4325;42.520;27.448;2023-02-03T00:10:29;23.63;;;13.57;;
8574;SDS011;4325;42.520;27.448;2023-02-03T00:12:56;19.50;;;11.70;;
8574;SDS011;4325;42.520;27.448;2023-02-03T00:15:23;12.23;;;6.97;;
8574;SDS011;4325;42.520;27.448;2023-02-03T00:17:49;8.97;;;4.60;;
8574;SDS011;4325;42.520;27.448;2023-02-03T00:20:18;10.87;;;6.80;;
8574;SDS011;4325;42.520;27.448;2023-02-03T00:22:45;21.07;;;11.40;;
8574;SDS011;4325;42.520;27.448;2023-02-03T00:25:12;18.00;;;9.97;;
8574;SDS011;4325;42.520;27.448;2023-02-03T00:27:39;11.23;;;5.90;;
8574;SDS011;4325;42.520;27.448;2023-02-03T00:30:06;10.93;;;6.47;;
8574;SDS011;4325;42.520;27.448;2023-02-03T00:32:33;14.87;;;7.90;;
8574;SDS011;4325;42.520;27.448;2023-02-03T00:35:00;17.93;;;10.00;;
8574;SDS011;4325;42.520;27.448;2023-02-03T00:37:28;12.20;;;7.20;;
8574;SDS011;4325;42.520;27.448;2023-02-03T00:39:55;8.33;;;4.40;;
8574;SDS011;4325;42.520;27.448;2023-02-03T00:42:22;7.53;;;3.27;;
8574;SDS011;4325;42.520;27.448;2023-02-03T00:44:49;3.63;;;2.67;;
8574;SDS011;4325;42.520;27.448;2023-02-03T00:47:16;6.23;;;2.90;;
8574;SDS011;4325;42.520;27.448;2023-02-03T00:49:42;4.83;;;2.50;;
8574;SDS011;4325;42.520;27.448;2023-02-03T00:52:09;4.30;;;2.30;;
8574;SDS011;4325;42.520;27.448;2023-02-03T00:54:37;5.40;;;2.93;;
8574;SDS011;4325;42.520;27.448;2023-02-03T00:57:04;12.37;;;8.57;;
8574;SDS011;4325;42.520;27.448;2023-02-03T00:59:31;19.30;;;11.60;;
8574;SDS011;4325;42.520;27.448;2023-02-03T01:01:58;17.07;;;9.50;;
8574;SDS011;4325;42.520;27.448;2023-02-03T01:04:25;13.33;;;8.23;;
8574;SDS011;4325;42.520;27.448;2023-02-03T01:06:52;12.20;;;6.33;;
8574;SDS011;4325;42.520;27.448;2023-02-03T01:09:21;14.23;;;7.23;;
8574;SDS011;4325;42.520;27.448;2023-02-03T01:11:49;17.77;;;10.13;;
8574;SDS011;4325;42.520;27.448;2023-02-03T01:14:16;32.73;;;16.67;;
8574;SDS011;4325;42.520;27.448;2023-02-03T01:16:43;27.70;;;15.13;;
8574;SDS011;4325;42.520;27.448;2023-02-03T01:19:10;13.87;;;7.50;;
8574;SDS011;4325;42.520;27.448;2023-02-03T01:21:37;7.03;;;3.80;;
8574;SDS011;4325;42.520;27.448;2023-02-03T01:24:04;5.53;;;2.80;;
8574;SDS011;4325;42.520;27.448;2023-02-03T01:26:31;7.77;;;3.57;;
8574;SDS011;4325;42.520;27.448;2023-02-03T01:28:59;11.13;;;6.83;;
8574;SDS011;4325;42.520;27.448;2023-02-03T01:31:27;9.83;;;4.40;;
8574;SDS011;4325;42.520;27.448;2023-02-03T01:33:55;6.27;;;4.63;;
8574;SDS011;4325;42.520;27.448;2023-02-03T01:36:25;6.17;;;3.63;;
8574;SDS011;4325;42.520;27.448;2023-02-03T01:38:53;24.17;;;11.73;;
8574;SDS011;4325;42.520;27.448;2023-02-03T01:41:21;18.57;;;8.27;;
8574;SDS011;4325;42.520;27.448;2023-02-03T01:43:51;9.43;;;6.33;;
8574;SDS011;4325;42.520;27.448;2023-02-03T01:46:23;11.50;;;7.50;;
8574;SDS011;4325;42.520;27.448;2023-02-03T01:48:54;6.77;;;4.80;;
8574;SDS011;4325;42.520;27.448;2023-02-03T01:51:27;3.43;;;2.10;;
8574;SDS011;4325;42.520;27.448;2023-02-03T01:53:55;3.93;;;2.63;;
8574;SDS011;4325;42.520;27.448;2023-02-03T01:56:23;2.63;;;2.17;;
8574;SDS011;4325;42.520;27.448;2023-02-03T01:58:53;4.10;;;2.17;;
8574;SDS011;4325;42.520;27.448;2023-02-03T02:01:20;5.47;;;2.97;;
8574;SDS011;4325;42.520;27.448;2023-02-03T02:03:49;5.03;;;3.20;;
8574;SDS011;4325;42.520;27.448;2023-02-03T02:06:20;3.60;;;2.77;;
8574;SDS011;4325;42.520;27.448;2023-02-03T02:08:47;5.03;;;2.47;;
8574;SDS011;4325;42.520;27.448;2023-02-03T02:11:16;5.47;;;2.60;;
8574;SDS011;4325;42.520;27.448;2023-02-03T02:13:45;5.53;;;2.77;;
8574;SDS011;4325;42.520;27.448;2023-02-03T02:16:15;4.87;;;2.70;;
8574;SDS011;4325;42.520;27.448;2023-02-03T02:21:57;5.13;;;2.73;;
8574;SDS011;4325;42.520;27.448;2023-02-03T02:24:38;6.70;;;3.07;;
8574;SDS011;4325;42.520;27.448;2023-02-03T02:27:49;10.90;;;4.97;;
8574;SDS011;4325;42.520;27.448;2023-02-03T02:33:39;5.87;;;2.70;;
8574;SDS011;4325;42.520;27.448;2023-02-03T02:36:11;7.10;;;2.80;;
8574;SDS011;4325;42.520;27.448;2023-02-03T02:38:49;6.60;;;1.97;;
8574;SDS011;4325;42.520;27.448;2023-02-03T02:41:25;8.97;;;3.63;;
8574;SDS011;4325;42.520;27.448;2023-02-03T02:43:59;8.57;;;5.43;;
8574;SDS011;4325;42.520;27.448;2023-02-03T02:46:30;9.17;;;5.20;;
8574;SDS011;4325;42.520;27.448;2023-02-03T02:49:05;6.27;;;4.30;;
8574;SDS011;4325;42.520;27.448;2023-02-03T02:51:35;9.17;;;2.90;;
8574;SDS011;4325;42.520;27.448;2023-02-03T02:54:04;3.67;;;2.70;;
8574;SDS011;4325;42.520;27.448;2023-02-03T02:56:35;5.17;;;3.40;;
8574;SDS011;4325;42.520;27.448;2023-02-03T02:59:06;8.53;;;4.17;;
8574;SDS011;4325;42.520;27.448;2023-02-03T03:01:34;6.10;;;4.37;;
8574;SDS011;4325;42.520;27.448;2023-02-03T03:04:02;7.60;;;4.00;;
8574;SDS011;4325;42.520;27.448;2023-02-03T03:06:36;4.57;;;2.50;;
8574;SDS011;4325;42.520;27.448;2023-02-03T03:09:07;5.83;;;2.37;;
8574;SDS011;4325;42.520;27.448;2023-02-03T03:11:38;4.90;;;2.60;;
8574;SDS011;4325;42.520;27.448;2023-02-03T03:14:09;4.23;;;2.53;;
8574;SDS011;4325;42.520;27.448;2023-02-03T03:16:38;5.90;;;2.60;;
8574;SDS011;4325;42.520;27.448;2023-02-03T03:19:15;4.87;;;2.80;;
8574;SDS011;4325;42.520;27.448;2023-02-03T03:21:46;5.03;;;3.20;;
8574;SDS011;4325;42.520;27.448;2023-02-03T03:24:17;13.00;;;4.83;;
8574;SDS011;4325;42.520;27.448;2023-02-03T03:26:49;11.93;;;6.27;;
8574;SDS011;4325;42.520;27.448;2023-02-03T03:29:20;12.57;;;6.50;;
8574;SDS011;4325;42.520;27.448;2023-02-03T03:31:50;17.20;;;10.40;;
8574;SDS011;4325;42.520;27.448;2023-02-03T03:34:18;21.63;;;9.73;;
8574;SDS011;4325;42.520;27.448;2023-02-03T03:36:46;10.37;;;5.97;;
8574;SDS011;4325;42.520;27.448;2023-02-03T03:39:21;8.30;;;5.00;;
8574;SDS011;4325;42.520;27.448;2023-02-03T03:41:55;9.80;;;4.40;;
8574;SDS011;4325;42.520;27.448;2023-02-03T03:44:27;6.77;;;3.67;;
8574;SDS011;4325;42.520;27.448;2023-02-03T03:47:05;6.83;;;3.57;;
8574;SDS011;4325;42.520;27.448;2023-02-03T03:49:37;6.73;;;3.30;;
8574;SDS011;4325;42.520;27.448;2023-02-03T03:52:08;5.00;;;3.63;;
8574;SDS011;4325;42.520;27.448;2023-02-03T03:54:39;7.60;;;4.03;;
8574;SDS011;4325;42.520;27.448;2023-02-03T03:57:10;4.63;;;3.20;;
8574;SDS011;4325;42.520;27.448;2023-02-03T03:59:44;8.93;;;3.40;;
8574;SDS011;4325;42.520;27.448;2023-02-03T04:02:15;5.40;;;3.00;;
8574;SDS011;4325;42.520;27.448;2023-02-03T04:04:45;3.90;;;2.87;;
8574;SDS011;4325;42.520;27.448;2023-02-03T04:07:14;5.00;;;3.37;;
8574;SDS011;4325;42.520;27.448;2023-02-03T04:09:41;5.13;;;2.80;;
8574;SDS011;4325;42.520;27.448;2023-02-03T04:12:11;3.83;;;2.67;;
8574;SDS011;4325;42.520;27.448;2023-02-03T04:14:46;7.13;;;3.73;;
8574;SDS011;4325;42.520;27.448;2023-02-03T04:17:13;6.37;;;3.53;;
8574;SDS011;4325;42.520;27.448;2023-02-03T04:19:40;9.17;;;5.00;;
8574;SDS011;4325;42.520;27.448;2023-02-03T04:22:08;11.47;;;6.93;;
8574;SDS011;4325;42.520;27.448;2023-02-03T04:24:35;14.60;;;7.97;;
8574;SDS011;4325;42.520;27.448;2023-02-03T04:27:02;32.73;;;14.03;;
8574;SDS011;4325;42.520;27.448;2023-02-03T04:29:29;43.00;;;19.93;;
8574;SDS011;4325;42.520;27.448;2023-02-03T04:31:56;44.77;;;18.63;;
8574;SDS011;4325;42.520;27.448;2023-02-03T04:34:22;50.00;;;20.80;;
8574;SDS011;4325;42.520;27.448;2023-02-03T04:36:49;38.23;;;17.00;;
8574;SDS011;4325;42.520;27.448;2023-02-03T04:39:18;23.53;;;11.37;;
8574;SDS011;4325;42.520;27.448;2023-02-03T04:41:45;12.17;;;6.10;;
8574;SDS011;4325;42.520;27.448;2023-02-03T04:44:11;8.17;;;4.67;;
8574;SDS011;4325;42.520;27.448;2023-02-03T04:46:38;9.53;;;5.33;;
8574;SDS011;4325;42.520;27.448;2023-02-03T04:49:05;8.43;;;4.90;;
8574;SDS011;4325;42.520;27.448;2023-02-03T04:51:35;12.13;;;6.13;;
8574;SDS011;4325;42.520;27.448;2023-02-03T04:54:02;17.27;;;6.80;;
8574;SDS011;4325;42.520;27.448;2023-02-03T04:56:31;23.80;;;10.40;;
8574;SDS011;4325;42.520;27.448;2023-02-03T04:58:57;19.37;;;8.57;;
8574;SDS011;4325;42.520;27.448;2023-02-03T05:01:24;32.80;;;12.90;;
8574;SDS011;4325;42.520;27.448;2023-02-03T05:03:51;42.83;;;16.77;;
8574;SDS011;4325;42.520;27.448;2023-02-03T05:06:21;27.97;;;10.17;;
8574;SDS011;4325;42.520;27.448;2023-02-03T05:08:49;13.77;;;6.60;;
8574;SDS011;4325;42.520;27.448;2023-02-03T05:11:16;8.57;;;4.20;;
8574;SDS011;4325;42.520;27.448;2023-02-03T05:13:44;9.70;;;4.73;;
8574;SDS011;4325;42.520;27.448;2023-02-03T05:16:11;8.93;;;4.40;;
8574;SDS011;4325;42.520;27.448;2023-02-03T05:18:38;9.07;;;4.80;;
8574;SDS011;4325;42.520;27.448;2023-02-03T05:21:05;11.70;;;5.33;;
8574;SDS011;4325;42.520;27.448;2023-02-03T05:23:32;14.17;;;5.67;;
8574;SDS011;4325;42.520;27.448;2023-02-03T05:25:59;12.83;;;4.63;;
8574;SDS011;4325;42.520;27.448;2023-02-03T05:28:26;10.60;;;4.97;;
8574;SDS011;4325;42.520;27.448;2023-02-03T05:30:56;8.53;;;5.67;;
8574;SDS011;4325;42.520;27.448;2023-02-03T05:33:23;33.33;;;15.10;;
8574;SDS011;4325;42.520;27.448;2023-02-03T05:35:50;27.07;;;12.30;;
8574;SDS011;4325;42.520;27.448;2023-02-03T05:38:17;16.83;;;10.30;;
8574;SDS011;4325;42.520;27.448;2023-02-03T05:40:46;8.97;;;5.53;;
8574;SDS011;4325;42.520;27.448;2023-02-03T05:43:31;9.00;;;5.90;;
8574;SDS011;4325;42.520;27.448;2023-02-03T05:46:00;10.37;;;4.97;;
8574;SDS011;4325;42.520;27.448;2023-02-03T05:48:27;11.33;;;3.70;;
8574;SDS011;4325;42.520;27.448;2023-02-03T05:50:54;8.30;;;5.30;;
8574;SDS011;4325;42.520;27.448;2023-02-03T05:53:21;9.40;;;6.23;;
8574;SDS011;4325;42.520;27.448;2023-02-03T05:55:48;16.70;;;10.33;;
8574;SDS011;4325;42.520;27.448;2023-02-03T05:58:15;20.60;;;11.07;;
8574;SDS011;4325;42.520;27.448;2023-02-03T06:00:41;25.23;;;13.43;;
8574;SDS011;4325;42.520;27.448;2023-02-03T06:03:10;29.90;;;15.77;;
8574;SDS011;4325;42.520;27.448;2023-02-03T06:05:37;12.07;;;7.13;;
8574;SDS011;4325;42.520;27.448;2023-02-03T06:08:05;12.30;;;6.93;;
8574;SDS011;4325;42.520;27.448;2023-02-03T06:10:33;11.27;;;5.93;;
8574;SDS011;4325;42.520;27.448;2023-02-03T06:13:06;10.73;;;5.47;;
8574;SDS011;4325;42.520;27.448;2023-02-03T06:15:34;8.83;;;5.17;;
8574;SDS011;4325;42.520;27.448;2023-02-03T06:18:00;7.27;;;4.43;;
8574;SDS011;4325;42.520;27.448;2023-02-03T06:20:29;7.03;;;3.90;;
8574;SDS011;4325;42.520;27.448;2023-02-03T06:22:56;5.70;;;4.03;;
8574;SDS011;4325;42.520;27.448;2023-02-03T06:25:23;6.93;;;4.20;;
8574;SDS011;4325;42.520;27.448;2023-02-03T06:27:50;17.97;;;9.63;;
8574;SDS011;4325;42.520;27.448;2023-02-03T06:30:17;13.00;;;5.73;;
8574;SDS011;4325;42.520;27.448;2023-02-03T06:32:48;13.07;;;7.10;;
8574;SDS011;4325;42.520;27.448;2023-02-03T06:35:14;10.93;;;6.20;;
8574;SDS011;4325;42.520;27.448;2023-02-03T06:37:43;6.97;;;5.40;;
8574;SDS011;4325;42.520;27.448;2023-02-03T06:40:10;11.30;;;6.53;;
8574;SDS011;4325;42.520;27.448;2023-02-03T06:42:38;12.73;;;8.00;;
8574;SDS011;4325;42.520;27.448;2023-02-03T06:45:05;14.57;;;8.27;;
8574;SDS011;4325;42.520;27.448;2023-02-03T06:47:32;12.17;;;8.23;;
8574;SDS011;4325;42.520;27.448;2023-02-03T06:49:59;19.37;;;9.10;;
8574;SDS011;4325;42.520;27.448;2023-02-03T06:52:26;17.47;;;9.80;;
8574;SDS011;4325;42.520;27.448;2023-02-03T06:54:54;13.77;;;7.93;;
8574;SDS011;4325;42.520;27.448;2023-02-03T06:57:21;10.90;;;6.93;;
8574;SDS011;4325;42.520;27.448;2023-02-03T06:59:48;12.23;;;5.30;;
8574;SDS011;4325;42.520;27.448;2023-02-03T07:02:15;9.20;;;5.73;;
8574;SDS011;4325;42.520;27.448;2023-02-03T07:04:42;8.77;;;5.90;;
8574;SDS011;4325;42.520;27.448;2023-02-03T07:07:09;9.33;;;5.97;;
8574;SDS011;4325;42.520;27.448;2023-02-03T07:09:36;8.10;;;6.10;;
8574;SDS011;4325;42.520;27.448;2023-02-03T07:12:05;10.27;;;5.07;;
8574;SDS011;4325;42.520;27.448;2023-02-03T07:14:32;10.03;;;5.77;;
8574;SDS011;4325;42.520;27.448;2023-02-03T07:17:00;10.00;;;5.77;;
8574;SDS011;4325;42.520;27.448;2023-02-03T07:19:27;11.27;;;5.83;;
8574;SDS011;4325;42.520;27.448;2023-02-03T07:21:54;7.90;;;5.33;;
8574;SDS011;4325;42.520;27.448;2023-02-03T07:24:21;15.23;;;6.30;;
8574;SDS011;4325;42.520;27.448;2023-02-03T07:26:48;10.27;;;6.27;;
8574;SDS011;4325;42.520;27.448;2023-02-03T07:29:16;10.63;;;4.93;;
8574;SDS011;4325;42.520;27.448;2023-02-03T07:31:43;7.30;;;4.40;;
8574;SDS011;4325;42.520;27.448;2023-02-03T07:34:09;9.00;;;5.63;;
8574;SDS011;4325;42.520;27.448;2023-02-03T07:36:36;8.53;;;4.63;;
8574;SDS011;4325;42.520;27.448;2023-02-03T07:39:03;7.70;;;4.23;;
8574;SDS011;4325;42.520;27.448;2023-02-03T07:41:30;7.00;;;4.13;;
8574;SDS011;4325;42.520;27.448;2023-02-03T07:43:57;11.57;;;5.10;;
8574;SDS011;4325;42.520;27.448;2023-02-03T07:46:25;10.27;;;5.90;;
8574;SDS011;4325;42.520;27.448;2023-02-03T07:48:52;9.40;;;4.80;;
8574;SDS011;4325;42.520;27.448;2023-02-03T07:51:19;10.83;;;5.30;;
8574;SDS011;4325;42.520;27.448;2023-02-03T07:53:46;7.40;;;4.50;;
8574;SDS011;4325;42.520;27.448;2023-02-03T07:56:13;6.73;;;4.40;;
8574;SDS011;4325;42.520;27.448;2023-02-03T07:58:39;8.40;;;4.37;;
8574;SDS011;4325;42.520;27.448;2023-02-03T08:01:10;6.80;;;3.83;;
8574;SDS011;4325;42.520;27.448;2023-02-03T08:03:39;6.97;;;4.60;;
8574;SDS011;4325;42.520;27.448;2023-02-03T08:06:06;7.07;;;3.90;;
8574;SDS011;4325;42.520;27.448;2023-02-03T08:08:33;7.33;;;4.00;;
8574;SDS011;4325;42.520;27.448;2023-02-03T08:11:01;7.67;;;3.87;;
8574;SDS011;4325;42.520;27.448;2023-02-03T08:13:28;8.80;;;3.90;;
8574;SDS011;4325;42.520;27.448;2023-02-03T08:15:55;9.67;;;4.20;;
8574;SDS011;4325;42.520;27.448;2023-02-03T08:18:21;7.03;;;4.03;;
8574;SDS011;4325;42.520;27.448;2023-02-03T08:20:50;7.03;;;4.10;;
8574;SDS011;4325;42.520;27.448;2023-02-03T08:23:16;11.77;;;4.57;;
8574;SDS011;4325;42.520;27.448;2023-02-03T08:25:43;5.60;;;4.33;;
8574;SDS011;4325;42.520;27.448;2023-02-03T08:28:10;10.33;;;5.30;;
8574;SDS011;4325;42.520;27.448;2023-02-03T08:30:37;10.80;;;5.80;;
8574;SDS011;4325;42.520;27.448;2023-02-03T08:33:04;12.03;;;6.90;;
8574;SDS011;4325;42.520;27.448;2023-02-03T08:35:31;9.83;;;5.70;;
8574;SDS011;4325;42.520;27.448;2023-02-03T08:37:59;10.67;;;5.67;;
8574;SDS011;4325;42.520;27.448;2023-02-03T08:40:26;6.60;;;3.80;;
8574;SDS011;4325;42.520;27.448;2023-02-03T08:42:53;7.27;;;3.13;;
8574;SDS011;4325;42.520;27.448;2023-02-03T08:45:20;7.43;;;4.43;;
8574;SDS011;4325;42.520;27.448;2023-02-03T08:47:47;6.57;;;3.43;;
8574;SDS011;4325;42.520;27.448;2023-02-03T08:50:14;7.63;;;3.07;;
8574;SDS011;4325;42.520;27.448;2023-02-03T08:52:41;7.10;;;3.50;;
8574;SDS011;4325;42.520;27.448;2023-02-03T08:55:09;9.00;;;3.60;;
8574;SDS011;4325;42.520;27.448;2023-02-03T08:57:36;6.70;;;4.30;;
8574;SDS011;4325;42.520;27.448;2023-02-03T09:00:04;9.80;;;4.77;;
8574;SDS011;4325;42.520;27.448;2023-02-03T09:02:32;4.77;;;3.50;;
8574;SDS011;4325;42.520;27.448;2023-02-03T09:04:58;6.47;;;3.87;;
8574;SDS011;4325;42.520;27.448;2023-02-03T09:07:25;6.47;;;3.83;;
8574;SDS011;4325;42.520;27.448;2023-02-03T09:09:52;4.50;;;3.23;;
8574;SDS011;4325;42.520;27.448;2023-02-03T09:12:21;5.57;;;2.97;;
8574;SDS011;4325;42.520;27.448;2023-02-03T09:14:47;5.20;;;3.67;;
8574;SDS011;4325;42.520;27.448;2023-02-03T09:17:15;4.43;;;3.10;;
8574;SDS011;4325;42.520;27.448;2023-02-03T09:19:41;4.83;;;2.80;;
8574;SDS011;4325;42.520;27.448;2023-02-03T09:22:08;4.20;;;2.77;;
8574;SDS011;4325;42.520;27.448;2023-02-03T09:24:35;2.97;;;2.53;;
8574;SDS011;4325;42.520;27.448;2023-02-03T09:27:02;8.33;;;4.70;;
8574;SDS011;4325;42.520;27.448;2023-02-03T09:29:30;7.27;;;4.57;;
8574;SDS011;4325;42.520;27.448;2023-02-03T09:31:57;7.27;;;4.17;;
8574;SDS011;4325;42.520;27.448;2023-02-03T09:34:25;6.50;;;3.00;;
8574;SDS011;4325;42.520;27.448;2023-02-03T09:36:52;6.77;;;4.00;;
8574;SDS011;4325;42.520;27.448;2023-02-03T09:39:18;5.00;;;3.50;;
8574;SDS011;4325;42.520;27.448;2023-02-03T09:41:49;7.47;;;3.37;;
8574;SDS011;4325;42.520;27.448;2023-02-03T09:44:28;4.20;;;2.80;;
8574;SDS011;4325;42.520;27.448;2023-02-03T09:47:04;5.20;;;3.03;;
8574;SDS011;4325;42.520;27.448;2023-02-03T09:49:39;3.20;;;2.90;;
8574;SDS011;4325;42.520;27.448;2023-02-03T09:52:08;4.27;;;2.40;;
8574;SDS011;4325;42.520;27.448;2023-02-03T09:54:40;6.03;;;2.30;;
8574;SDS011;4325;42.520;27.448;2023-02-03T09:57:13;4.97;;;3.17;;
8574;SDS011;4325;42.520;27.448;2023-02-03T09:59:47;6.70;;;3.70;;
8574;SDS011;4325;42.520;27.448;2023-02-03T10:02:19;3.20;;;2.90;;
8574;SDS011;4325;42.520;27.448;2023-02-03T10:04:57;5.27;;;4.30;;
8574;SDS011;4325;42.520;27.448;2023-02-03T10:07:27;5.73;;;3.03;;
8574;SDS011;4325;42.520;27.448;2023-02-03T10:10:01;3.23;;;2.90;;
8574;SDS011;4325;42.520;27.448;2023-02-03T10:12:53;3.67;;;2.70;;
8574;SDS011;4325;42.520;27.448;2023-02-03T10:15:40;3.40;;;2.30;;
8574;SDS011;4325;42.520;27.448;2023-02-03T10:18:29;3.47;;;2.17;;
8574;SDS011;4325;42.520;27.448;2023-02-03T10:21:01;3.37;;;2.63;;
8574;SDS011;4325;42.520;27.448;2023-02-03T10:23:32;3.30;;;2.30;;
8574;SDS011;4325;42.520;27.448;2023-02-03T10:26:02;3.50;;;2.30;;
8574;SDS011;4325;42.520;27.448;2023-02-03T10:28:34;4.13;;;2.10;;
8574;SDS011;4325;42.520;27.448;2023-02-03T10:31:07;3.20;;;2.40;;
8574;SDS011;4325;42.520;27.448;2023-02-03T10:33:42;2.40;;;2.20;;
8574;SDS011;4325;42.520;27.448;2023-02-03T10:36:12;2.97;;;2.20;;
8574;SDS011;4325;42.520;27.448;2023-02-03T10:38:45;2.60;;;2.03;;
8574;SDS011;4325;42.520;27.448;2023-02-03T10:41:19;2.00;;;1.90;;
8574;SDS011;4325;42.520;27.448;2023-02-03T10:43:48;2.87;;;2.10;;
8574;SDS011;4325;42.520;27.448;2023-02-03T10:46:19;3.00;;;2.13;;
8574;SDS011;4325;42.520;27.448;2023-02-03T10:48:47;5.53;;;2.80;;
8574;SDS011;4325;42.520;27.448;2023-02-03T10:51:17;3.90;;;2.40;;
8574;SDS011;4325;42.520;27.448;2023-02-03T10:53:47;3.13;;;2.00;;
8574;SDS011;4325;42.520;27.448;2023-02-03T10:56:17;2.90;;;1.87;;
8574;SDS011;4325;42.520;27.448;2023-02-03T10:58:47;4.23;;;2.33;;
8574;SDS011;4325;42.520;27.448;2023-02-03T11:01:16;2.53;;;2.33;;
8574;SDS011;4325;42.520;27.448;2023-02-03T11:06:30;57.57;;;23.47;;
8574;SDS011;4325;42.520;27.448;2023-02-03T11:08:58;5.00;;;3.10;;
8574;SDS011;4325;42.520;27.448;2023-02-03T11:11:26;3.67;;;2.60;;
8574;SDS011;4325;42.520;27.448;2023-02-03T11:14:07;6.30;;;2.60;;
8574;SDS011;4325;42.520;27.448;2023-02-03T11:16:38;3.10;;;2.37;;
8574;SDS011;4325;42.520;27.448;2023-02-03T11:19:06;2.30;;;1.83;;
8574;SDS011;4325;42.520;27.448;2023-02-03T11:21:42;2.30;;;2.10;;
8574;SDS011;4325;42.520;27.448;2023-02-03T11:24:14;2.97;;;2.60;;
8574;SDS011;4325;42.520;27.448;2023-02-03T11:26:45;3.23;;;2.60;;
8574;SDS011;4325;42.520;27.448;2023-02-03T11:29:16;2.50;;;2.30;;
8574;SDS011;4325;42.520;27.448;2023-02-03T11:31:47;5.57;;;2.77;;
8574;SDS011;4325;42.520;27.448;2023-02-03T11:34:16;3.43;;;2.17;;
8574;SDS011;4325;42.520;27.448;2023-02-03T11:36:48;3.53;;;2.90;;
8574;SDS011;4325;42.520;27.448;2023-02-03T11:39:26;4.50;;;2.60;;
8574;SDS011;4325;42.520;27.448;2023-02-03T11:41:54;2.00;;;1.90;;
8574;SDS011;4325;42.520;27.448;2023-02-03T11:44:22;2.63;;;2.10;;
8574;SDS011;4325;42.520;27.448;2023-02-03T11:46:56;3.70;;;2.43;;
8574;SDS011;4325;42.520;27.448;2023-02-03T11:49:33;3.93;;;2.27;;
8574;SDS011;4325;42.520;27.448;2023-02-03T11:52:17;2.83;;;2.03;;
8574;SDS011;4325;42.520;27.448;2023-02-03T11:55:06;3.23;;;2.30;;
8574;SDS011;4325;42.520;27.448;2023-02-03T11:57:41;3.30;;;2.37;;
8574;SDS011;4325;42.520;27.448;2023-02-03T12:00:16;4.33;;;2.97;;
8574;SDS011;4325;42.520;27.448;2023-02-03T12:03:08;4.50;;;2.03;;
8574;SDS011;4325;42.520;27.448;2023-02-03T12:05:57;2.20;;;2.00;;
8574;SDS011;4325;42.520;27.448;2023-02-03T12:08:48;7.07;;;2.50;;
8574;SDS011;4325;42.520;27.448;2023-02-03T12:11:33;6.63;;;2.60;;
8574;SDS011;4325;42.520;27.448;2023-02-03T12:14:16;3.27;;;2.20;;
8574;SDS011;4325;42.520;27.448;2023-02-03T12:16:58;3.97;;;2.80;;
8574;SDS011;4325;42.520;27.448;2023-02-03T12:19:47;5.93;;;2.53;;
8574;SDS011;4325;42.520;27.448;2023-02-03T12:22:28;2.77;;;2.10;;
8574;SDS011;4325;42.520;27.448;2023-02-03T12:25:04;2.87;;;2.17;;
8574;SDS011;4325;42.520;27.448;2023-02-03T12:27:44;4.73;;;2.30;;
8574;SDS011;4325;42.520;27.448;2023-02-03T12:30:19;4.13;;;2.37;;
8574;SDS011;4325;42.520;27.448;2023-02-03T12:32:50;4.80;;;1.97;;
8574;SDS011;4325;42.520;27.448;2023-02-03T12:35:24;3.73;;;1.77;;
8574;SDS011;4325;42.520;27.448;2023-02-03T12:37:57;4.63;;;2.30;;
8574;SDS011;4325;42.520;27.448;2023-02-03T12:40:33;3.70;;;2.23;;
8574;SDS011;4325;42.520;27.448;2023-02-03T12:43:05;3.10;;;2.17;;
8574;SDS011;4325;42.520;27.448;2023-02-03T12:45:44;3.67;;;2.13;;
8574;SDS011;4325;42.520;27.448;2023-02-03T12:48:19;3.00;;;2.13;;
8574;SDS011;4325;42.520;27.448;2023-02-03T12:50:52;2.43;;;1.97;;
8574;SDS011;4325;42.520;27.448;2023-02-03T12:53:26;3.13;;;1.97;;
8574;SDS011;4325;42.520;27.448;2023-02-03T12:55:57;3.43;;;2.10;;
8574;SDS011;4325;42.520;27.448;2023-02-03T12:58:30;3.30;;;2.20;;
8574;SDS011;4325;42.520;27.448;2023-02-03T13:01:01;5.37;;;2.50;;
8574;SDS011;4325;42.520;27.448;2023-02-03T13:03:32;3.17;;;2.40;;
8574;SDS011;4325;42.520;27.448;2023-02-03T13:06:06;8.30;;;2.70;;
8574;SDS011;4325;42.520;27.448;2023-02-03T13:08:42;6.13;;;3.30;;
8574;SDS011;4325;42.520;27.448;2023-02-03T13:11:18;5.83;;;2.63;;
8574;SDS011;4325;42.520;27.448;2023-02-03T13:13:50;5.63;;;2.17;;
8574;SDS011;4325;42.520;27.448;2023-02-03T13:16:22;4.57;;;2.43;;
8574;SDS011;4325;42.520;27.448;2023-02-03T13:18:55;4.67;;;2.43;;
8574;SDS011;4325;42.520;27.448;2023-02-03T13:21:27;2.77;;;2.30;;
8574;SDS011;4325;42.520;27.448;2023-02-03T13:23:54;4.90;;;2.30;;
8574;SDS011;4325;42.520;27.448;2023-02-03T13:26:27;3.27;;;2.30;;
8574;SDS011;4325;42.520;27.448;2023-02-03T13:29:16;3.83;;;1.80;;
8574;SDS011;4325;42.520;27.448;2023-02-03T13:31:58;4.30;;;2.00;;
8574;SDS011;4325;42.520;27.448;2023-02-03T13:34:39;2.73;;;2.00;;
8574;SDS011;4325;42.520;27.448;2023-02-03T13:40:27;2.80;;;1.87;;
8574;SDS011;4325;42.520;27.448;2023-02-03T13:43:04;3.60;;;2.30;;
8574;SDS011;4325;42.520;27.448;2023-02-03T13:45:37;4.27;;;2.57;;
8574;SDS011;4325;42.520;27.448;2023-02-03T13:48:08;4.07;;;2.20;;
8574;SDS011;4325;42.520;27.448;2023-02-03T13:50:40;2.73;;;2.00;;
8574;SDS011;4325;42.520;27.448;2023-02-03T13:53:14;5.07;;;1.90;;
8574;SDS011;4325;42.520;27.448;2023-02-03T13:55:43;2.20;;;1.83;;
8574;SDS011;4325;42.520;27.448;2023-02-03T13:58:20;4.17;;;2.00;;
8574;SDS011;4325;42.520;27.448;2023-02-03T14:00:57;2.23;;;2.03;;
8574;SDS011;4325;42.520;27.448;2023-02-03T14:03:42;2.20;;;1.70;;
8574;SDS011;4325;42.520;27.448;2023-02-03T14:09:32;3.97;;;2.10;;
8574;SDS011;4325;42.520;27.448;2023-02-03T14:12:11;2.70;;;1.80;;
8574;SDS011;4325;42.520;27.448;2023-02-03T14:14:57;4.40;;;2.47;;
8574;SDS011;4325;42.520;27.448;2023-02-03T14:20:53;4.10;;;2.27;;
8574;SDS011;4325;42.520;27.448;2023-02-03T14:23:41;3.47;;;2.70;;
8574;SDS011;4325;42.520;27.448;2023-02-03T14:29:05;2.90;;;2.40;;
8574;SDS011;4325;42.520;27.448;2023-02-03T14:34:33;2.93;;;2.60;;
8574;SDS011;4325;42.520;27.448;2023-02-03T14:37:09;5.13;;;2.50;;
8574;SDS011;4325;42.520;27.448;2023-02-03T14:39:44;5.47;;;2.63;;
8574;SDS011;4325;42.520;27.448;2023-02-03T14:42:35;3.37;;;2.67;;
8574;SDS011;4325;42.520;27.448;2023-02-03T14:45:32;5.77;;;3.10;;
8574;SDS011;4325;42.520;27.448;2023-02-03T14:48:20;3.07;;;2.27;;
8574;SDS011;4325;42.520;27.448;2023-02-03T14:51:01;5.30;;;2.33;;
8574;SDS011;4325;42.520;27.448;2023-02-03T14:53:40;7.10;;;2.93;;
8574;SDS011;4325;42.520;27.448;2023-02-03T14:56:39;3.80;;;2.67;;
8574;SDS011;4325;42.520;27.448;2023-02-03T14:59:34;4.73;;;3.17;;
8574;SDS011;4325;42.520;27.448;2023-02-03T15:02:12;3.37;;;2.70;;
8574;SDS011;4325;42.520;27.448;2023-02-03T15:04:41;4.50;;;2.90;;
8574;SDS011;4325;42.520;27.448;2023-02-03T15:07:24;5.73;;;2.50;;
8574;SDS011;4325;42.520;27.448;2023-02-03T15:10:00;6.23;;;2.30;;
8574;SDS011;4325;42.520;27.448;2023-02-03T15:12:27;3.20;;;2.60;;
8574;SDS011;4325;42.520;27.448;2023-02-03T15:15:19;3.97;;;2.40;;
8574;SDS011;4325;42.520;27.448;2023-02-03T15:17:48;3.33;;;2.10;;
8574;SDS011;4325;42.520;27.448;2023-02-03T15:20:26;5.33;;;2.90;;
8574;SDS011;4325;42.520;27.448;2023-02-03T15:22:57;5.77;;;2.77;;
8574;SDS011;4325;42.520;27.448;2023-02-03T15:25:24;4.53;;;2.80;;
8574;SDS011;4325;42.520;27.448;2023-02-03T15:27:54;3.67;;;2.17;;
8574;SDS011;4325;42.520;27.448;2023-02-03T15:30:37;3.77;;;2.53;;
8574;SDS011;4325;42.520;27.448;2023-02-03T15:33:06;4.83;;;3.50;;
8574;SDS011;4325;42.520;27.448;2023-02-03T15:35:36;6.50;;;3.20;;
8574;SDS011;4325;42.520;27.448;2023-02-03T15:38:06;5.77;;;3.70;;
8574;SDS011;4325;42.520;27.448;2023-02-03T15:40:40;8.73;;;4.60;;
8574;SDS011;4325;42.520;27.448;2023-02-03T15:43:13;6.00;;;4.27;;
8574;SDS011;4325;42.520;27.448;2023-02-03T15:45:46;9.33;;;5.80;;